sensor_id;sensor_type;location;lat;lon;timestamp;P1;durP1;ratioP1;P2;durP2;ratioP2
70199;SDS011;57587;55.688;37.600;2024-03-08T00:00:13;7.28;;;4.10;;
70199;SDS011;57587;55.688;37.600;2024-03-08T00:02:45;8.00;;;4.93;;
70199;SDS011;57587;55.688;37.600;2024-03-08T00:05:13;8.02;;;5.03;;
70199;SDS011;57587;55.688;37.600;2024-03-08T00:07:41;7.40;;;4.93;;
70199;SDS011;57587;55.688;37.600;2024-03-08T00:10:11;7.35;;;4.30;;
70199;SDS011;57587;55.688;37.600;2024-03-08T00:12:44;8.32;;;4.07;;
70199;SDS011;57587;55.688;37.600;2024-03-08T00:15:13;10.00;;;4.17;;
70199;SDS011;57587;55.688;37.600;2024-03-08T00:17:44;10.40;;;4.97;;
70199;SDS011;57587;55.688;37.600;2024-03-08T00:20:13;8.00;;;4.70;;
70199;SDS011;57587;55.688;37.600;2024-03-08T00:22:41;7.57;;;4.45;;
70199;SDS011;57587;55.688;37.600;2024-03-08T00:25:09;7.30;;;3.80;;
70199;SDS011;57587;55.688;37.600;2024-03-08T00:27:36;8.10;;;4.80;;
70199;SDS011;57587;55.688;37.600;2024-03-08T00:30:06;8.20;;;4.68;;
70199;SDS011;57587;55.688;37.600;2024-03-08T00:32:34;8.27;;;3.92;;
70199;SDS011;57587;55.688;37.600;2024-03-08T00:35:03;5.90;;;3.95;;
70199;SDS011;57587;55.688;37.600;2024-03-08T00:37:30;7.90;;;3.65;;
70199;SDS011;57587;55.688;37.600;2024-03-08T00:39:58;5.93;;;3.70;;
70199;SDS011;57587;55.688;37.600;2024-03-08T00:42:25;14.70;;;3.90;;
70199;SDS011;57587;55.688;37.600;2024-03-08T00:44:52;7.38;;;4.03;;
70199;SDS011;57587;55.688;37.600;2024-03-08T00:47:20;6.68;;;4.03;;
70199;SDS011;57587;55.688;37.600;2024-03-08T00:49:47;7.13;;;3.95;;
70199;SDS011;57587;55.688;37.600;2024-03-08T00:52:14;7.50;;;4.43;;
70199;SDS011;57587;55.688;37.600;2024-03-08T00:54:41;6.43;;;4.10;;
70199;SDS011;57587;55.688;37.600;2024-03-08T00:57:11;8.27;;;4.40;;
70199;SDS011;57587;55.688;37.600;2024-03-08T00:59:39;6.43;;;4.05;;
70199;SDS011;57587;55.688;37.600;2024-03-08T01:02:06;6.70;;;4.28;;
70199;SDS011;57587;55.688;37.600;2024-03-08T01:04:33;7.17;;;4.50;;
70199;SDS011;57587;55.688;37.600;2024-03-08T01:07:00;8.40;;;3.80;;
70199;SDS011;57587;55.688;37.600;2024-03-08T01:09:28;8.60;;;4.65;;
70199;SDS011;57587;55.688;37.600;2024-03-08T01:11:55;6.15;;;3.63;;
70199;SDS011;57587;55.688;37.600;2024-03-08T01:14:23;6.22;;;3.80;;
70199;SDS011;57587;55.688;37.600;2024-03-08T01:16:52;6.30;;;3.57;;
70199;SDS011;57587;55.688;37.600;2024-03-08T01:19:19;9.50;;;4.63;;
70199;SDS011;57587;55.688;37.600;2024-03-08T01:21:47;5.35;;;3.70;;
70199;SDS011;57587;55.688;37.600;2024-03-08T01:24:14;6.82;;;4.03;;
70199;SDS011;57587;55.688;37.600;2024-03-08T01:26:41;6.93;;;3.70;;
70199;SDS011;57587;55.688;37.600;2024-03-08T01:29:09;6.87;;;3.60;;
70199;SDS011;57587;55.688;37.600;2024-03-08T01:31:36;7.03;;;3.83;;
70199;SDS011;57587;55.688;37.600;2024-03-08T01:34:03;7.13;;;4.30;;
70199;SDS011;57587;55.688;37.600;2024-03-08T01:36:31;6.15;;;4.10;;
70199;SDS011;57587;55.688;37.600;2024-03-08T01:38:58;7.68;;;3.75;;
70199;SDS011;57587;55.688;37.600;2024-03-08T01:41:26;6.27;;;3.57;;
70199;SDS011;57587;55.688;37.600;2024-03-08T01:43:56;6.38;;;4.10;;
70199;SDS011;57587;55.688;37.600;2024-03-08T01:46:24;8.18;;;4.28;;
70199;SDS011;57587;55.688;37.600;2024-03-08T01:48:51;6.70;;;4.63;;
70199;SDS011;57587;55.688;37.600;2024-03-08T01:51:19;7.60;;;3.95;;
70199;SDS011;57587;55.688;37.600;2024-03-08T01:53:47;6.37;;;3.83;;
70199;SDS011;57587;55.688;37.600;2024-03-08T01:56:15;5.90;;;3.60;;
70199;SDS011;57587;55.688;37.600;2024-03-08T01:58:45;6.55;;;4.22;;
70199;SDS011;57587;55.688;37.600;2024-03-08T02:01:13;6.88;;;4.15;;
70199;SDS011;57587;55.688;37.600;2024-03-08T02:03:42;6.72;;;3.90;;
70199;SDS011;57587;55.688;37.600;2024-03-08T02:06:12;8.60;;;4.00;;
70199;SDS011;57587;55.688;37.600;2024-03-08T02:08:41;6.65;;;3.78;;
70199;SDS011;57587;55.688;37.600;2024-03-08T02:11:13;9.05;;;4.25;;
70199;SDS011;57587;55.688;37.600;2024-03-08T02:13:42;7.70;;;4.07;;
70199;SDS011;57587;55.688;37.600;2024-03-08T02:16:09;7.35;;;3.78;;
70199;SDS011;57587;55.688;37.600;2024-03-08T02:18:36;7.47;;;3.87;;
70199;SDS011;57587;55.688;37.600;2024-03-08T02:21:06;8.57;;;4.22;;
70199;SDS011;57587;55.688;37.600;2024-03-08T02:23:36;6.75;;;3.80;;
70199;SDS011;57587;55.688;37.600;2024-03-08T02:26:04;6.95;;;3.92;;
70199;SDS011;57587;55.688;37.600;2024-03-08T02:28:31;7.50;;;4.18;;
70199;SDS011;57587;55.688;37.600;2024-03-08T02:31:00;7.10;;;4.10;;
70199;SDS011;57587;55.688;37.600;2024-03-08T02:33:27;7.75;;;4.22;;
70199;SDS011;57587;55.688;37.600;2024-03-08T02:35:55;9.82;;;4.13;;
70199;SDS011;57587;55.688;37.600;2024-03-08T02:38:23;6.28;;;3.80;;
70199;SDS011;57587;55.688;37.600;2024-03-08T02:40:52;10.98;;;4.32;;
70199;SDS011;57587;55.688;37.600;2024-03-08T02:43:21;9.67;;;4.50;;
70199;SDS011;57587;55.688;37.600;2024-03-08T02:45:50;7.05;;;4.15;;
70199;SDS011;57587;55.688;37.600;2024-03-08T02:48:19;8.05;;;4.28;;
70199;SDS011;57587;55.688;37.600;2024-03-08T02:50:48;5.57;;;3.50;;
70199;SDS011;57587;55.688;37.600;2024-03-08T02:53:18;8.60;;;4.38;;
70199;SDS011;57587;55.688;37.600;2024-03-08T02:55:46;8.20;;;3.83;;
70199;SDS011;57587;55.688;37.600;2024-03-08T02:58:14;8.30;;;4.50;;
70199;SDS011;57587;55.688;37.600;2024-03-08T03:00:41;7.55;;;4.00;;
70199;SDS011;57587;55.688;37.600;2024-03-08T03:03:11;7.78;;;4.00;;
70199;SDS011;57587;55.688;37.600;2024-03-08T03:05:39;10.18;;;4.05;;
70199;SDS011;57587;55.688;37.600;2024-03-08T03:08:14;8.03;;;4.77;;
70199;SDS011;57587;55.688;37.600;2024-03-08T03:10:43;8.68;;;3.75;;
70199;SDS011;57587;55.688;37.600;2024-03-08T03:13:11;7.00;;;4.43;;
70199;SDS011;57587;55.688;37.600;2024-03-08T03:15:39;8.52;;;5.25;;
70199;SDS011;57587;55.688;37.600;2024-03-08T03:18:08;7.00;;;4.53;;
70199;SDS011;57587;55.688;37.600;2024-03-08T03:20:36;12.57;;;6.10;;
70199;SDS011;57587;55.688;37.600;2024-03-08T03:23:08;6.85;;;4.30;;
70199;SDS011;57587;55.688;37.600;2024-03-08T03:25:36;7.88;;;4.22;;
70199;SDS011;57587;55.688;37.600;2024-03-08T03:28:06;7.97;;;4.55;;
70199;SDS011;57587;55.688;37.600;2024-03-08T03:30:34;7.68;;;4.50;;
70199;SDS011;57587;55.688;37.600;2024-03-08T03:33:05;9.10;;;4.57;;
70199;SDS011;57587;55.688;37.600;2024-03-08T03:35:35;10.05;;;5.80;;
70199;SDS011;57587;55.688;37.600;2024-03-08T03:38:04;9.20;;;5.60;;
70199;SDS011;57587;55.688;37.600;2024-03-08T03:40:37;10.48;;;5.30;;
70199;SDS011;57587;55.688;37.600;2024-03-08T03:43:06;9.32;;;4.93;;
70199;SDS011;57587;55.688;37.600;2024-03-08T03:45:34;9.07;;;5.60;;
70199;SDS011;57587;55.688;37.600;2024-03-08T03:48:04;10.35;;;5.57;;
70199;SDS011;57587;55.688;37.600;2024-03-08T03:50:37;9.43;;;5.70;;
70199;SDS011;57587;55.688;37.600;2024-03-08T03:53:05;10.00;;;5.20;;
70199;SDS011;57587;55.688;37.600;2024-03-08T03:55:37;10.23;;;5.57;;
70199;SDS011;57587;55.688;37.600;2024-03-08T03:58:07;8.50;;;5.17;;
70199;SDS011;57587;55.688;37.600;2024-03-08T04:00:38;7.28;;;5.88;;
70199;SDS011;57587;55.688;37.600;2024-03-08T04:03:05;8.10;;;5.55;;
70199;SDS011;57587;55.688;37.600;2024-03-08T04:05:33;10.40;;;5.35;;
70199;SDS011;57587;55.688;37.600;2024-03-08T04:08:01;10.23;;;5.47;;
70199;SDS011;57587;55.688;37.600;2024-03-08T04:10:29;7.83;;;5.33;;
70199;SDS011;57587;55.688;37.600;2024-03-08T04:12:58;8.23;;;4.40;;
70199;SDS011;57587;55.688;37.600;2024-03-08T04:15:25;8.85;;;5.18;;
70199;SDS011;57587;55.688;37.600;2024-03-08T04:17:52;9.48;;;5.10;;
70199;SDS011;57587;55.688;37.600;2024-03-08T04:20:20;11.55;;;5.45;;
70199;SDS011;57587;55.688;37.600;2024-03-08T04:22:48;10.70;;;6.10;;
70199;SDS011;57587;55.688;37.600;2024-03-08T04:25:16;8.73;;;5.03;;
70199;SDS011;57587;55.688;37.600;2024-03-08T04:27:44;11.75;;;5.68;;
70199;SDS011;57587;55.688;37.600;2024-03-08T04:30:12;10.05;;;5.97;;
70199;SDS011;57587;55.688;37.600;2024-03-08T04:32:39;8.80;;;4.88;;
70199;SDS011;57587;55.688;37.600;2024-03-08T04:35:08;9.97;;;6.30;;
70199;SDS011;57587;55.688;37.600;2024-03-08T04:37:35;7.68;;;5.28;;
70199;SDS011;57587;55.688;37.600;2024-03-08T04:40:03;9.63;;;5.93;;
70199;SDS011;57587;55.688;37.600;2024-03-08T04:42:30;11.40;;;5.55;;
70199;SDS011;57587;55.688;37.600;2024-03-08T04:45:00;9.88;;;6.15;;
70199;SDS011;57587;55.688;37.600;2024-03-08T04:47:30;10.20;;;5.50;;
70199;SDS011;57587;55.688;37.600;2024-03-08T04:49:57;9.30;;;5.55;;
70199;SDS011;57587;55.688;37.600;2024-03-08T04:52:25;12.50;;;6.43;;
70199;SDS011;57587;55.688;37.600;2024-03-08T04:54:52;12.15;;;5.97;;
70199;SDS011;57587;55.688;37.600;2024-03-08T04:57:19;12.07;;;6.45;;
70199;SDS011;57587;55.688;37.600;2024-03-08T04:59:47;11.40;;;7.07;;
70199;SDS011;57587;55.688;37.600;2024-03-08T05:02:14;13.40;;;5.90;;
70199;SDS011;57587;55.688;37.600;2024-03-08T05:04:41;12.90;;;5.88;;
70199;SDS011;57587;55.688;37.600;2024-03-08T05:07:09;10.50;;;5.43;;
70199;SDS011;57587;55.688;37.600;2024-03-08T05:09:36;11.32;;;5.15;;
70199;SDS011;57587;55.688;37.600;2024-03-08T05:12:04;8.63;;;5.07;;
70199;SDS011;57587;55.688;37.600;2024-03-08T05:14:32;10.95;;;5.05;;
70199;SDS011;57587;55.688;37.600;2024-03-08T05:17:01;10.45;;;5.30;;
70199;SDS011;57587;55.688;37.600;2024-03-08T05:19:28;14.02;;;5.45;;
70199;SDS011;57587;55.688;37.600;2024-03-08T05:22:00;10.45;;;4.88;;
70199;SDS011;57587;55.688;37.600;2024-03-08T05:24:28;10.83;;;5.70;;
70199;SDS011;57587;55.688;37.600;2024-03-08T05:26:57;8.15;;;4.72;;
70199;SDS011;57587;55.688;37.600;2024-03-08T05:29:26;10.63;;;5.60;;
70199;SDS011;57587;55.688;37.600;2024-03-08T05:31:53;7.65;;;4.65;;
70199;SDS011;57587;55.688;37.600;2024-03-08T05:34:21;10.95;;;5.18;;
70199;SDS011;57587;55.688;37.600;2024-03-08T05:36:48;12.80;;;5.07;;
70199;SDS011;57587;55.688;37.600;2024-03-08T05:39:18;9.40;;;5.32;;
70199;SDS011;57587;55.688;37.600;2024-03-08T05:41:47;8.55;;;4.75;;
70199;SDS011;57587;55.688;37.600;2024-03-08T05:44:15;14.20;;;5.43;;
70199;SDS011;57587;55.688;37.600;2024-03-08T05:46:44;12.60;;;5.18;;
70199;SDS011;57587;55.688;37.600;2024-03-08T05:49:13;12.60;;;5.53;;
70199;SDS011;57587;55.688;37.600;2024-03-08T05:51:41;12.35;;;4.95;;
70199;SDS011;57587;55.688;37.600;2024-03-08T05:54:12;11.93;;;5.22;;
70199;SDS011;57587;55.688;37.600;2024-03-08T05:56:43;11.32;;;5.05;;
70199;SDS011;57587;55.688;37.600;2024-03-08T05:59:12;7.95;;;5.50;;
70199;SDS011;57587;55.688;37.600;2024-03-08T06:01:40;10.37;;;5.93;;
70199;SDS011;57587;55.688;37.600;2024-03-08T06:04:09;10.05;;;6.07;;
70199;SDS011;57587;55.688;37.600;2024-03-08T06:06:41;14.43;;;6.22;;
70199;SDS011;57587;55.688;37.600;2024-03-08T06:09:08;11.65;;;5.57;;
70199;SDS011;57587;55.688;37.600;2024-03-08T06:11:41;8.38;;;5.72;;
70199;SDS011;57587;55.688;37.600;2024-03-08T06:14:09;9.73;;;5.20;;
70199;SDS011;57587;55.688;37.600;2024-03-08T06:16:36;11.10;;;6.40;;
70199;SDS011;57587;55.688;37.600;2024-03-08T06:19:05;10.02;;;5.20;;
70199;SDS011;57587;55.688;37.600;2024-03-08T06:21:32;9.88;;;5.78;;
70199;SDS011;57587;55.688;37.600;2024-03-08T06:23:59;9.55;;;5.70;;
70199;SDS011;57587;55.688;37.600;2024-03-08T06:26:30;10.47;;;5.17;;
70199;SDS011;57587;55.688;37.600;2024-03-08T06:28:59;10.15;;;5.38;;
70199;SDS011;57587;55.688;37.600;2024-03-08T06:31:27;9.95;;;5.57;;
70199;SDS011;57587;55.688;37.600;2024-03-08T06:33:54;9.82;;;4.88;;
70199;SDS011;57587;55.688;37.600;2024-03-08T06:36:23;10.32;;;5.38;;
70199;SDS011;57587;55.688;37.600;2024-03-08T06:38:51;11.27;;;5.73;;
70199;SDS011;57587;55.688;37.600;2024-03-08T06:41:19;8.00;;;4.53;;
70199;SDS011;57587;55.688;37.600;2024-03-08T06:43:47;10.18;;;4.82;;
70199;SDS011;57587;55.688;37.600;2024-03-08T06:46:24;9.55;;;5.18;;
70199;SDS011;57587;55.688;37.600;2024-03-08T06:48:51;11.32;;;4.90;;
70199;SDS011;57587;55.688;37.600;2024-03-08T06:51:19;9.70;;;5.27;;
70199;SDS011;57587;55.688;37.600;2024-03-08T06:53:46;9.77;;;5.50;;
70199;SDS011;57587;55.688;37.600;2024-03-08T06:56:13;10.25;;;4.82;;
70199;SDS011;57587;55.688;37.600;2024-03-08T06:58:41;9.75;;;5.90;;
70199;SDS011;57587;55.688;37.600;2024-03-08T07:01:08;10.00;;;5.95;;
70199;SDS011;57587;55.688;37.600;2024-03-08T07:03:41;11.97;;;5.47;;
70199;SDS011;57587;55.688;37.600;2024-03-08T07:06:11;10.95;;;5.80;;
70199;SDS011;57587;55.688;37.600;2024-03-08T07:08:39;11.85;;;5.93;;
70199;SDS011;57587;55.688;37.600;2024-03-08T07:11:06;9.63;;;5.80;;
70199;SDS011;57587;55.688;37.600;2024-03-08T07:13:34;23.58;;;12.05;;
70199;SDS011;57587;55.688;37.600;2024-03-08T07:16:01;12.90;;;6.10;;
70199;SDS011;57587;55.688;37.600;2024-03-08T07:18:28;12.27;;;6.35;;
70199;SDS011;57587;55.688;37.600;2024-03-08T07:20:57;11.88;;;6.25;;
70199;SDS011;57587;55.688;37.600;2024-03-08T07:23:25;14.00;;;8.48;;
70199;SDS011;57587;55.688;37.600;2024-03-08T07:26:16;12.50;;;7.63;;
70199;SDS011;57587;55.688;37.600;2024-03-08T07:28:45;13.20;;;6.17;;
70199;SDS011;57587;55.688;37.600;2024-03-08T07:31:12;10.60;;;5.93;;
70199;SDS011;57587;55.688;37.600;2024-03-08T07:33:58;9.75;;;6.18;;
70199;SDS011;57587;55.688;37.600;2024-03-08T07:36:25;10.30;;;5.78;;
70199;SDS011;57587;55.688;37.600;2024-03-08T07:38:52;11.18;;;5.60;;
70199;SDS011;57587;55.688;37.600;2024-03-08T07:41:19;12.50;;;6.27;;
70199;SDS011;57587;55.688;37.600;2024-03-08T07:43:46;11.88;;;5.93;;
70199;SDS011;57587;55.688;37.600;2024-03-08T07:46:15;11.02;;;6.18;;
70199;SDS011;57587;55.688;37.600;2024-03-08T07:48:45;11.27;;;6.32;;
70199;SDS011;57587;55.688;37.600;2024-03-08T07:51:15;10.35;;;5.95;;
70199;SDS011;57587;55.688;37.600;2024-03-08T07:53:44;10.80;;;6.00;;
70199;SDS011;57587;55.688;37.600;2024-03-08T07:56:14;13.07;;;5.93;;
70199;SDS011;57587;55.688;37.600;2024-03-08T07:58:43;10.10;;;5.88;;
70199;SDS011;57587;55.688;37.600;2024-03-08T08:01:20;10.38;;;5.45;;
70199;SDS011;57587;55.688;37.600;2024-03-08T08:03:49;10.35;;;5.63;;
70199;SDS011;57587;55.688;37.600;2024-03-08T08:06:16;10.93;;;5.97;;
70199;SDS011;57587;55.688;37.600;2024-03-08T08:08:43;11.68;;;6.18;;
70199;SDS011;57587;55.688;37.600;2024-03-08T08:11:11;10.82;;;5.97;;
70199;SDS011;57587;55.688;37.600;2024-03-08T08:13:38;13.65;;;6.55;;
70199;SDS011;57587;55.688;37.600;2024-03-08T08:16:05;13.30;;;6.00;;
70199;SDS011;57587;55.688;37.600;2024-03-08T08:18:33;12.17;;;6.67;;
70199;SDS011;57587;55.688;37.600;2024-03-08T08:21:04;13.63;;;6.90;;
70199;SDS011;57587;55.688;37.600;2024-03-08T08:23:33;12.77;;;6.70;;
70199;SDS011;57587;55.688;37.600;2024-03-08T08:26:00;16.98;;;7.90;;
70199;SDS011;57587;55.688;37.600;2024-03-08T08:28:28;15.02;;;8.15;;
70199;SDS011;57587;55.688;37.600;2024-03-08T08:31:01;12.10;;;6.87;;
70199;SDS011;57587;55.688;37.600;2024-03-08T08:33:31;17.50;;;8.05;;
70199;SDS011;57587;55.688;37.600;2024-03-08T08:35:59;11.75;;;6.28;;
70199;SDS011;57587;55.688;37.600;2024-03-08T08:38:26;10.27;;;6.60;;
70199;SDS011;57587;55.688;37.600;2024-03-08T08:40:54;12.43;;;6.07;;
70199;SDS011;57587;55.688;37.600;2024-03-08T08:43:21;16.30;;;6.30;;
70199;SDS011;57587;55.688;37.600;2024-03-08T08:45:51;13.77;;;6.72;;
70199;SDS011;57587;55.688;37.600;2024-03-08T08:48:21;14.55;;;6.68;;
70199;SDS011;57587;55.688;37.600;2024-03-08T08:50:48;10.70;;;6.00;;
70199;SDS011;57587;55.688;37.600;2024-03-08T08:53:17;13.43;;;6.82;;
70199;SDS011;57587;55.688;37.600;2024-03-08T08:55:45;15.93;;;7.17;;
70199;SDS011;57587;55.688;37.600;2024-03-08T08:58:15;13.55;;;7.22;;
70199;SDS011;57587;55.688;37.600;2024-03-08T09:00:42;13.13;;;6.75;;
70199;SDS011;57587;55.688;37.600;2024-03-08T09:03:10;12.40;;;6.90;;
70199;SDS011;57587;55.688;37.600;2024-03-08T09:05:39;14.40;;;7.13;;
70199;SDS011;57587;55.688;37.600;2024-03-08T09:08:07;11.17;;;6.50;;
70199;SDS011;57587;55.688;37.600;2024-03-08T09:10:35;15.10;;;6.82;;
70199;SDS011;57587;55.688;37.600;2024-03-08T09:13:03;10.50;;;6.75;;
70199;SDS011;57587;55.688;37.600;2024-03-08T09:15:31;13.10;;;7.40;;
70199;SDS011;57587;55.688;37.600;2024-03-08T09:17:58;14.80;;;7.53;;
70199;SDS011;57587;55.688;37.600;2024-03-08T09:20:26;13.60;;;6.40;;
70199;SDS011;57587;55.688;37.600;2024-03-08T09:22:53;14.20;;;6.85;;
70199;SDS011;57587;55.688;37.600;2024-03-08T09:25:20;19.48;;;7.35;;
70199;SDS011;57587;55.688;37.600;2024-03-08T09:27:48;13.48;;;7.13;;
70199;SDS011;57587;55.688;37.600;2024-03-08T09:30:16;19.05;;;9.30;;
70199;SDS011;57587;55.688;37.600;2024-03-08T09:32:44;14.57;;;7.80;;
70199;SDS011;57587;55.688;37.600;2024-03-08T09:35:11;10.98;;;6.57;;
70199;SDS011;57587;55.688;37.600;2024-03-08T09:37:38;12.23;;;7.25;;
70199;SDS011;57587;55.688;37.600;2024-03-08T09:40:05;16.25;;;7.65;;
70199;SDS011;57587;55.688;37.600;2024-03-08T09:42:37;13.80;;;7.18;;
70199;SDS011;57587;55.688;37.600;2024-03-08T09:45:05;14.83;;;7.77;;
70199;SDS011;57587;55.688;37.600;2024-03-08T09:47:41;14.85;;;7.18;;
70199;SDS011;57587;55.688;37.600;2024-03-08T09:50:10;13.43;;;7.40;;
70199;SDS011;57587;55.688;37.600;2024-03-08T09:52:39;15.07;;;7.32;;
70199;SDS011;57587;55.688;37.600;2024-03-08T09:55:07;16.35;;;7.72;;
70199;SDS011;57587;55.688;37.600;2024-03-08T09:57:39;14.60;;;7.13;;
70199;SDS011;57587;55.688;37.600;2024-03-08T10:00:07;14.18;;;7.95;;
70199;SDS011;57587;55.688;37.600;2024-03-08T10:02:51;11.98;;;7.13;;
70199;SDS011;57587;55.688;37.600;2024-03-08T10:05:20;13.18;;;7.90;;
70199;SDS011;57587;55.688;37.600;2024-03-08T10:07:48;16.63;;;7.38;;
70199;SDS011;57587;55.688;37.600;2024-03-08T10:10:15;12.80;;;7.30;;
70199;SDS011;57587;55.688;37.600;2024-03-08T10:12:45;13.13;;;7.05;;
70199;SDS011;57587;55.688;37.600;2024-03-08T10:15:16;14.73;;;7.25;;
70199;SDS011;57587;55.688;37.600;2024-03-08T10:17:47;14.02;;;7.55;;
70199;SDS011;57587;55.688;37.600;2024-03-08T10:20:18;15.15;;;6.95;;
70199;SDS011;57587;55.688;37.600;2024-03-08T10:22:45;14.00;;;7.33;;
70199;SDS011;57587;55.688;37.600;2024-03-08T10:25:32;14.40;;;7.18;;
70199;SDS011;57587;55.688;37.600;2024-03-08T10:28:00;15.40;;;7.78;;
70199;SDS011;57587;55.688;37.600;2024-03-08T10:30:33;13.18;;;6.97;;
70199;SDS011;57587;55.688;37.600;2024-03-08T10:33:00;17.90;;;8.02;;
70199;SDS011;57587;55.688;37.600;2024-03-08T10:35:28;15.53;;;7.80;;
70199;SDS011;57587;55.688;37.600;2024-03-08T10:38:01;14.25;;;7.00;;
70199;SDS011;57587;55.688;37.600;2024-03-08T11:05:45;16.10;;;7.60;;
70199;SDS011;57587;55.688;37.600;2024-03-08T11:12:41;13.07;;;6.97;;
70199;SDS011;57587;55.688;37.600;2024-03-08T11:28:25;13.68;;;6.97;;
70199;SDS011;57587;55.688;37.600;2024-03-08T11:48:42;15.70;;;8.15;;
70199;SDS011;57587;55.688;37.600;2024-03-08T11:51:24;18.85;;;8.30;;
70199;SDS011;57587;55.688;37.600;2024-03-08T11:53:52;14.73;;;7.43;;
70199;SDS011;57587;55.688;37.600;2024-03-08T11:56:19;15.57;;;7.60;;
70199;SDS011;57587;55.688;37.600;2024-03-08T11:58:53;14.82;;;7.80;;
70199;SDS011;57587;55.688;37.600;2024-03-08T12:01:25;15.80;;;7.75;;
70199;SDS011;57587;55.688;37.600;2024-03-08T12:03:53;14.57;;;7.22;;
70199;SDS011;57587;55.688;37.600;2024-03-08T12:06:21;13.83;;;6.97;;
70199;SDS011;57587;55.688;37.600;2024-03-08T12:08:48;11.02;;;7.07;;
70199;SDS011;57587;55.688;37.600;2024-03-08T12:11:18;14.63;;;7.28;;
70199;SDS011;57587;55.688;37.600;2024-03-08T12:13:55;15.88;;;7.72;;
70199;SDS011;57587;55.688;37.600;2024-03-08T12:16:24;14.32;;;7.38;;
70199;SDS011;57587;55.688;37.600;2024-03-08T12:18:51;14.40;;;7.97;;
70199;SDS011;57587;55.688;37.600;2024-03-08T12:21:20;12.38;;;7.07;;
70199;SDS011;57587;55.688;37.600;2024-03-08T12:24:01;14.75;;;7.88;;
70199;SDS011;57587;55.688;37.600;2024-03-08T12:26:30;14.57;;;7.82;;
70199;SDS011;57587;55.688;37.600;2024-03-08T12:29:18;11.98;;;6.38;;
70199;SDS011;57587;55.688;37.600;2024-03-08T12:31:56;12.73;;;7.73;;
70199;SDS011;57587;55.688;37.600;2024-03-08T12:34:31;15.25;;;7.85;;
70199;SDS011;57587;55.688;37.600;2024-03-08T12:36:58;14.48;;;6.53;;
70199;SDS011;57587;55.688;37.600;2024-03-08T12:39:26;14.30;;;7.47;;
70199;SDS011;57587;55.688;37.600;2024-03-08T12:41:56;15.95;;;7.05;;
70199;SDS011;57587;55.688;37.600;2024-03-08T12:44:26;13.63;;;6.50;;
70199;SDS011;57587;55.688;37.600;2024-03-08T12:46:55;12.27;;;6.40;;
70199;SDS011;57587;55.688;37.600;2024-03-08T12:49:26;11.65;;;7.03;;
70199;SDS011;57587;55.688;37.600;2024-03-08T12:51:54;11.70;;;6.50;;
70199;SDS011;57587;55.688;37.600;2024-03-08T12:54:21;13.32;;;7.00;;
70199;SDS011;57587;55.688;37.600;2024-03-08T12:56:51;12.37;;;6.90;;
70199;SDS011;57587;55.688;37.600;2024-03-08T12:59:21;11.63;;;6.63;;
70199;SDS011;57587;55.688;37.600;2024-03-08T13:01:50;12.88;;;7.05;;
70199;SDS011;57587;55.688;37.600;2024-03-08T13:04:19;11.00;;;6.50;;
70199;SDS011;57587;55.688;37.600;2024-03-08T13:06:48;12.75;;;7.85;;
70199;SDS011;57587;55.688;37.600;2024-03-08T13:09:21;12.53;;;6.87;;
70199;SDS011;57587;55.688;37.600;2024-03-08T13:11:49;11.70;;;6.00;;
70199;SDS011;57587;55.688;37.600;2024-03-08T13:14:16;14.27;;;6.43;;
70199;SDS011;57587;55.688;37.600;2024-03-08T13:16:43;15.63;;;5.90;;
70199;SDS011;57587;55.688;37.600;2024-03-08T13:19:15;9.85;;;6.10;;
70199;SDS011;57587;55.688;37.600;2024-03-08T13:21:43;12.77;;;7.80;;
70199;SDS011;57587;55.688;37.600;2024-03-08T13:24:14;12.35;;;7.22;;
70199;SDS011;57587;55.688;37.600;2024-03-08T13:26:43;15.18;;;6.97;;
70199;SDS011;57587;55.688;37.600;2024-03-08T13:29:11;15.25;;;6.90;;
70199;SDS011;57587;55.688;37.600;2024-03-08T13:31:38;10.80;;;6.50;;
70199;SDS011;57587;55.688;37.600;2024-03-08T13:34:06;12.23;;;5.70;;
70199;SDS011;57587;55.688;37.600;2024-03-08T13:36:33;14.93;;;7.13;;
70199;SDS011;57587;55.688;37.600;2024-03-08T13:39:06;13.85;;;6.95;;
70199;SDS011;57587;55.688;37.600;2024-03-08T13:41:42;15.18;;;7.15;;
70199;SDS011;57587;55.688;37.600;2024-03-08T13:44:09;9.18;;;5.20;;
70199;SDS011;57587;55.688;37.600;2024-03-08T13:46:36;12.67;;;6.63;;
70199;SDS011;57587;55.688;37.600;2024-03-08T13:49:05;11.43;;;5.78;;
70199;SDS011;57587;55.688;37.600;2024-03-08T13:51:35;9.85;;;6.20;;
70199;SDS011;57587;55.688;37.600;2024-03-08T13:54:02;12.85;;;6.35;;
70199;SDS011;57587;55.688;37.600;2024-03-08T13:56:33;10.07;;;5.20;;
70199;SDS011;57587;55.688;37.600;2024-03-08T13:59:00;11.97;;;5.70;;
70199;SDS011;57587;55.688;37.600;2024-03-08T14:01:29;12.63;;;6.15;;
70199;SDS011;57587;55.688;37.600;2024-03-08T14:03:57;11.45;;;5.30;;
70199;SDS011;57587;55.688;37.600;2024-03-08T14:06:24;27.52;;;11.30;;
70199;SDS011;57587;55.688;37.600;2024-03-08T14:08:57;14.07;;;6.45;;
70199;SDS011;57587;55.688;37.600;2024-03-08T14:11:24;11.77;;;6.07;;
70199;SDS011;57587;55.688;37.600;2024-03-08T14:13:52;12.30;;;5.82;;
70199;SDS011;57587;55.688;37.600;2024-03-08T14:16:20;15.45;;;6.75;;
70199;SDS011;57587;55.688;37.600;2024-03-08T14:18:48;15.98;;;7.22;;
70199;SDS011;57587;55.688;37.600;2024-03-08T14:21:15;12.40;;;5.80;;
70199;SDS011;57587;55.688;37.600;2024-03-08T14:23:42;10.57;;;5.07;;
70199;SDS011;57587;55.688;37.600;2024-03-08T14:26:09;8.18;;;4.90;;
70199;SDS011;57587;55.688;37.600;2024-03-08T14:28:38;12.93;;;5.65;;
70199;SDS011;57587;55.688;37.600;2024-03-08T14:31:06;9.43;;;5.30;;
70199;SDS011;57587;55.688;37.600;2024-03-08T14:33:38;11.48;;;5.68;;
70199;SDS011;57587;55.688;37.600;2024-03-08T14:36:05;9.57;;;4.70;;
70199;SDS011;57587;55.688;37.600;2024-03-08T14:38:32;9.48;;;5.40;;
70199;SDS011;57587;55.688;37.600;2024-03-08T14:41:01;10.20;;;5.70;;
70199;SDS011;57587;55.688;37.600;2024-03-08T14:43:31;16.05;;;7.85;;
70199;SDS011;57587;55.688;37.600;2024-03-08T14:45:59;9.65;;;5.18;;
70199;SDS011;57587;55.688;37.600;2024-03-08T14:48:26;10.23;;;5.93;;
70199;SDS011;57587;55.688;37.600;2024-03-08T14:50:54;13.70;;;6.20;;
70199;SDS011;57587;55.688;37.600;2024-03-08T14:53:38;10.05;;;5.80;;
70199;SDS011;57587;55.688;37.600;2024-03-08T14:56:10;10.85;;;5.38;;
70199;SDS011;57587;55.688;37.600;2024-03-08T14:58:43;9.68;;;5.35;;
70199;SDS011;57587;55.688;37.600;2024-03-08T15:01:13;10.80;;;5.27;;
70199;SDS011;57587;55.688;37.600;2024-03-08T15:03:43;12.40;;;5.63;;
70199;SDS011;57587;55.688;37.600;2024-03-08T15:06:10;8.45;;;5.10;;
70199;SDS011;57587;55.688;37.600;2024-03-08T15:08:39;9.43;;;5.57;;
70199;SDS011;57587;55.688;37.600;2024-03-08T15:11:07;9.68;;;4.90;;
70199;SDS011;57587;55.688;37.600;2024-03-08T15:13:35;9.23;;;4.90;;
70199;SDS011;57587;55.688;37.600;2024-03-08T15:16:07;8.80;;;5.60;;
70199;SDS011;57587;55.688;37.600;2024-03-08T15:18:35;9.85;;;5.57;;
70199;SDS011;57587;55.688;37.600;2024-03-08T15:21:03;12.98;;;5.35;;
70199;SDS011;57587;55.688;37.600;2024-03-08T15:23:34;9.65;;;4.55;;
70199;SDS011;57587;55.688;37.600;2024-03-08T15:26:02;7.47;;;5.00;;
70199;SDS011;57587;55.688;37.600;2024-03-08T15:28:34;8.50;;;4.45;;
70199;SDS011;57587;55.688;37.600;2024-03-08T15:31:05;11.55;;;5.22;;
70199;SDS011;57587;55.688;37.600;2024-03-08T15:33:33;9.20;;;4.72;;
70199;SDS011;57587;55.688;37.600;2024-03-08T15:36:01;10.70;;;4.80;;